Terminal Aerodrome Forecast
Issued by NWS

Current Version | Previous Version | Graphics & Text | Print | Product List | Glossary On
Versions: 1 2 3 4 5 6 7 8 9 10 11 12 13 14 15 16 17 18 19
000
FTUS41 KILN 032300
TAFLCK
TAF
KLCK 032327Z 0400/0424 22006KT P6SM SCT080
     FM040200 18004KT P6SM SCT150
     FM041500 22012G20KT P6SM SCT050 BKN150
     FM042200 22009KT P6SM BKN090=

USA.gov is the U.S. government's official web portal to all federal, state and local government web resources and services.